createdAt,value
2022-10-17T00:01:06.483Z,89.34
2022-10-17T00:03:38.005Z,89.31
2022-10-17T00:06:12.272Z,88.99
2022-10-17T00:08:42.339Z,88.79
2022-10-17T00:11:16.253Z,88.63
2022-10-17T00:13:45.640Z,88.39
2022-10-17T00:16:14.128Z,88.46
2022-10-17T00:18:42.088Z,88.45
2022-10-17T00:21:17.815Z,88.40
2022-10-17T00:23:47.346Z,88.23
2022-10-17T00:26:15.822Z,88.34
2022-10-17T00:28:47.941Z,88.29
2022-10-17T00:31:17.874Z,88.19
2022-10-17T00:33:46.689Z,88.16
2022-10-17T00:36:25.518Z,88.11
2022-10-17T00:38:57.583Z,88.26
2022-10-17T00:41:29.043Z,88.36
2022-10-17T00:43:58.946Z,88.53
2022-10-17T00:46:32.802Z,88.58
2022-10-17T00:49:13.016Z,88.48
2022-10-17T00:51:49.473Z,88.36
2022-10-17T00:54:21.370Z,88.32
2022-10-17T00:56:50.580Z,88.15
2022-10-17T00:59:22.077Z,88.08
2022-10-17T01:02:06.342Z,87.66
2022-10-17T01:04:35.757Z,87.60
2022-10-17T01:07:04.006Z,87.64
2022-10-17T01:09:32.361Z,87.68
2022-10-17T01:12:16.124Z,87.70
2022-10-17T01:15:12.153Z,87.98
2022-10-17T01:18:24.868Z,88.17
2022-10-17T01:21:10.036Z,88.05
2022-10-17T01:24:02.786Z,88.01
2022-10-17T01:26:50.375Z,88.14
2022-10-17T01:29:52.071Z,88.07
2022-10-17T01:32:40.442Z,88.25
2022-10-17T01:35:33.576Z,88.32
2022-10-17T01:38:04.207Z,88.04
2022-10-17T01:40:42.929Z,87.87
2022-10-17T01:43:26.113Z,87.82
2022-10-17T01:46:09.174Z,87.79
2022-10-17T01:48:41.717Z,87.75
2022-10-17T01:51:19.143Z,87.56
2022-10-17T01:53:58.779Z,87.44
2022-10-17T01:56:30.810Z,87.45
2022-10-17T01:59:07.854Z,87.65
2022-10-17T02:01:38.303Z,87.60
2022-10-17T02:04:08.267Z,87.91
2022-10-17T02:06:36.986Z,88.00
2022-10-17T02:09:19.010Z,88.04
2022-10-17T02:12:12.961Z,87.64
2022-10-17T02:14:57.592Z,87.65
2022-10-17T02:17:31.613Z,87.82
2022-10-17T02:20:29.672Z,87.56
2022-10-17T02:23:00.609Z,87.78
2022-10-17T02:25:44.341Z,87.72
2022-10-17T02:28:45.009Z,87.49
2022-10-17T02:31:48.274Z,87.58
2022-10-17T02:34:28.176Z,87.79
2022-10-17T02:37:00.398Z,88.12
2022-10-17T02:39:30.814Z,87.99
2022-10-17T02:42:03.611Z,87.94
2022-10-17T02:44:32.794Z,87.91
2022-10-17T02:47:11.819Z,87.91
2022-10-17T02:49:45.079Z,87.69
2022-10-17T02:52:17.995Z,88.23
2022-10-17T02:54:54.933Z,89.13
2022-10-17T02:57:31.342Z,89.12
2022-10-17T03:00:02.294Z,88.67
2022-10-17T03:02:49.181Z,88.17
2022-10-17T03:05:20.690Z,87.99
2022-10-17T03:07:48.826Z,88.13
2022-10-17T03:10:17.501Z,88.00
2022-10-17T03:12:45.880Z,88.16
2022-10-17T03:15:14.464Z,87.74
2022-10-17T03:17:42.916Z,87.66
2022-10-17T03:20:11.640Z,87.77
2022-10-17T03:22:39.592Z,87.70
2022-10-17T03:25:08.368Z,87.74
2022-10-17T03:27:36.862Z,87.63
2022-10-17T03:30:06.057Z,87.47
2022-10-17T03:32:34.666Z,87.60
2022-10-17T03:35:02.856Z,87.44
2022-10-17T03:37:31.402Z,87.68
2022-10-17T03:39:59.975Z,87.39
2022-10-17T03:42:28.048Z,87.31
2022-10-17T03:44:55.912Z,87.33
2022-10-17T03:47:23.882Z,87.21
2022-10-17T03:49:53.999Z,87.02
2022-10-17T03:52:22.138Z,86.93
2022-10-17T03:54:51.473Z,87.02
2022-10-17T03:57:20.058Z,87.09
2022-10-17T03:59:48.027Z,87.43
2022-10-17T04:02:18.346Z,87.60
2022-10-17T04:04:46.420Z,87.62
2022-10-17T04:07:14.501Z,87.72
2022-10-17T04:09:44.422Z,87.45
2022-10-17T04:12:15.344Z,87.44
2022-10-17T04:14:43.924Z,87.36
2022-10-17T04:17:11.889Z,87.05
2022-10-17T04:19:40.071Z,86.90
2022-10-17T04:22:08.750Z,86.94
2022-10-17T04:24:38.565Z,86.94
2022-10-17T04:27:11.554Z,86.91
2022-10-17T04:29:42.178Z,87.00
2022-10-17T04:32:15.572Z,87.21
2022-10-17T04:34:51.218Z,87.41
2022-10-17T04:37:20.413Z,87.52
2022-10-17T04:39:48.997Z,87.56
2022-10-17T04:42:17.170Z,87.41
2022-10-17T04:44:45.175Z,87.30
2022-10-17T04:47:14.541Z,87.32
2022-10-17T04:49:43.025Z,87.20
2022-10-17T04:52:11.709Z,87.42
2022-10-17T04:54:49.301Z,87.44
2022-10-17T04:57:20.109Z,87.67
2022-10-17T04:59:54.949Z,87.79
2022-10-17T05:02:43.208Z,87.82
2022-10-17T05:05:11.176Z,87.63
2022-10-17T05:07:42.233Z,87.47
2022-10-17T05:10:20.019Z,87.21
2022-10-17T05:12:50.391Z,87.32
2022-10-17T05:15:19.225Z,87.47
2022-10-17T05:17:47.405Z,87.38
2022-10-17T05:20:15.802Z,87.44
2022-10-17T05:22:44.395Z,87.61
2022-10-17T05:25:12.641Z,87.60
2022-10-17T05:27:40.611Z,87.94
2022-10-17T05:30:10.418Z,88.71
2022-10-17T05:32:38.971Z,88.68
2022-10-17T05:35:07.428Z,88.59
2022-10-17T05:37:37.092Z,88.37
2022-10-17T05:40:06.454Z,88.42
2022-10-17T05:42:34.426Z,88.60
2022-10-17T05:45:03.856Z,88.67
2022-10-17T05:47:32.283Z,88.99
2022-10-17T05:50:00.611Z,89.22
2022-10-17T05:52:33.457Z,89.60
2022-10-17T05:55:11.190Z,89.79
2022-10-17T05:57:40.291Z,90.11
2022-10-17T06:00:12.557Z,91.20
2022-10-17T06:02:46.224Z,91.25
2022-10-17T06:05:16.457Z,91.13
2022-10-17T06:07:44.961Z,90.91
2022-10-17T06:10:16.616Z,90.26
2022-10-17T06:12:45.539Z,89.81
2022-10-17T06:15:13.648Z,90.18
2022-10-17T06:17:44.104Z,90.99
2022-10-17T06:20:12.382Z,91.57
2022-10-17T06:22:40.309Z,91.27
2022-10-17T06:25:14.051Z,91.87
2022-10-17T06:27:43.102Z,92.65
2022-10-17T06:30:12.240Z,93.20
2022-10-17T06:32:40.825Z,92.72
2022-10-17T06:35:09.469Z,92.36
2022-10-17T06:37:38.221Z,92.43
2022-10-17T06:40:12.335Z,92.50
2022-10-17T06:42:41.770Z,92.28
2022-10-17T06:45:25.240Z,91.97
2022-10-17T06:48:08.881Z,91.68
2022-10-17T06:50:53.475Z,91.50
2022-10-17T06:53:25.297Z,91.25
2022-10-17T06:56:16.298Z,90.94
2022-10-17T06:58:54.816Z,90.79
2022-10-17T07:01:36.712Z,90.49
2022-10-17T07:04:05.809Z,90.14
2022-10-17T07:06:35.036Z,90.21
2022-10-17T07:09:09.701Z,90.18
2022-10-17T07:11:38.316Z,89.95
2022-10-17T07:14:06.275Z,89.47
2022-10-17T07:16:35.369Z,89.12
2022-10-17T07:19:13.679Z,88.92
2022-10-17T07:21:41.649Z,88.48
2022-10-17T07:24:11.773Z,88.41
2022-10-17T07:26:42.704Z,88.35
2022-10-17T07:29:11.797Z,88.53
2022-10-17T07:31:55.638Z,88.62
2022-10-17T07:34:27.707Z,88.71
2022-10-17T07:36:55.902Z,88.59
2022-10-17T07:39:24.257Z,88.47
2022-10-17T07:41:52.388Z,88.50
2022-10-17T07:44:20.395Z,88.30
2022-10-17T07:46:50.943Z,88.14
2022-10-17T07:49:19.400Z,88.05
2022-10-17T07:51:48.688Z,87.86
2022-10-17T07:54:16.670Z,87.57
2022-10-17T07:56:50.871Z,87.23
2022-10-17T07:59:19.467Z,87.09
2022-10-17T08:01:47.608Z,86.99
2022-10-17T08:04:17.021Z,86.84
2022-10-17T08:06:45.220Z,86.76
2022-10-17T08:09:13.289Z,86.53
2022-10-17T08:11:44.114Z,86.37
2022-10-17T08:14:13.397Z,86.08
2022-10-17T08:16:41.495Z,85.82
2022-10-17T08:19:11.614Z,85.38
2022-10-17T08:21:39.780Z,85.47
2022-10-17T08:24:07.666Z,85.64
2022-10-17T08:26:39.255Z,85.91
2022-10-17T08:29:15.256Z,85.92
2022-10-17T08:31:47.476Z,85.86
2022-10-17T08:34:16.416Z,85.40
2022-10-17T08:36:44.312Z,85.08
2022-10-17T08:39:12.353Z,84.86
2022-10-17T08:41:54.761Z,84.64
2022-10-17T08:44:36.250Z,84.38
2022-10-17T08:47:11.585Z,83.86
2022-10-17T08:49:49.081Z,83.92
2022-10-17T08:52:41.003Z,83.73
2022-10-17T08:55:28.122Z,82.77
2022-10-17T08:57:56.060Z,82.84
2022-10-17T09:00:25.489Z,82.71
2022-10-17T09:03:08.663Z,82.94
2022-10-17T09:05:39.553Z,83.11
2022-10-17T09:08:13.560Z,83.06
2022-10-17T09:11:07.576Z,83.01
2022-10-17T09:13:51.276Z,83.06
2022-10-17T09:16:47.817Z,83.00
2022-10-17T09:19:31.039Z,83.04
2022-10-17T09:22:03.311Z,82.80
2022-10-17T09:24:49.348Z,82.53
2022-10-17T09:27:57.841Z,82.28
2022-10-17T09:30:48.211Z,82.05
2022-10-17T09:33:28.368Z,81.56
2022-10-17T09:36:17.912Z,81.38
2022-10-17T09:38:53.974Z,81.07
2022-10-17T09:41:44.128Z,79.76
2022-10-17T09:44:20.243Z,80.13
2022-10-17T09:46:56.511Z,79.14
2022-10-17T09:49:36.888Z,78.08
2022-10-17T09:52:11.082Z,77.37
2022-10-17T09:54:44.478Z,76.87
2022-10-17T09:57:13.798Z,76.62
2022-10-17T09:59:48.100Z,75.89
2022-10-17T10:02:17.802Z,75.19
2022-10-17T10:05:07.098Z,74.52
2022-10-17T10:07:39.578Z,74.60
2022-10-17T10:10:24.403Z,74.64
2022-10-17T10:13:14.965Z,74.22
2022-10-17T10:15:45.750Z,74.70
2022-10-17T10:21:17.517Z,73.60
2022-10-17T10:24:03.529Z,73.46
2022-10-17T10:26:45.127Z,73.73
2022-10-17T10:29:34.384Z,74.09
2022-10-17T10:32:24.136Z,73.77
2022-10-17T10:35:09.410Z,74.07
2022-10-17T10:37:44.014Z,74.31
2022-10-17T10:40:37.599Z,74.15
2022-10-17T10:43:06.779Z,74.62
2022-10-17T10:45:52.814Z,74.30
2022-10-17T10:48:30.704Z,74.34
2022-10-17T10:51:37.773Z,74.16
2022-10-17T10:54:13.224Z,74.17
2022-10-17T10:56:44.559Z,73.85
2022-10-17T10:59:27.518Z,73.42
2022-10-17T11:02:19.100Z,73.02
2022-10-17T11:05:11.491Z,72.43
2022-10-17T11:07:47.188Z,72.72
2022-10-17T11:10:30.209Z,72.00
2022-10-17T11:13:06.780Z,72.30
2022-10-17T11:15:47.749Z,72.01
2022-10-17T11:18:22.429Z,71.64
2022-10-17T11:21:23.606Z,71.49
2022-10-17T11:24:09.068Z,70.65
2022-10-17T11:26:45.365Z,69.95
2022-10-17T11:29:13.937Z,69.90
2022-10-17T11:31:55.941Z,69.37
2022-10-17T11:34:29.809Z,69.03
2022-10-17T11:37:12.636Z,68.92
2022-10-17T11:40:02.367Z,68.65
2022-10-17T11:42:40.793Z,68.43
2022-10-17T11:45:14.522Z,68.29
2022-10-17T11:47:50.517Z,67.22
2022-10-17T11:53:16.269Z,66.45
2022-10-17T11:55:45.839Z,66.59
2022-10-17T11:58:39.690Z,66.03
2022-10-17T12:01:10.725Z,65.99
2022-10-17T12:03:57.672Z,65.86
2022-10-17T12:06:39.633Z,66.06
2022-10-17T12:09:16.574Z,66.01
2022-10-17T12:11:55.482Z,66.22
2022-10-17T12:14:38.364Z,66.52
2022-10-17T12:17:39.023Z,66.30
2022-10-17T12:20:25.203Z,66.64
2022-10-17T12:22:54.531Z,66.73
2022-10-17T12:25:23.966Z,66.64
2022-10-17T12:28:02.670Z,66.44
2022-10-17T12:30:30.792Z,66.25
2022-10-17T12:33:22.330Z,66.40
2022-10-17T12:35:51.620Z,66.45
2022-10-17T12:38:21.149Z,66.12
2022-10-17T12:40:54.477Z,65.89
2022-10-17T12:43:28.143Z,66.01
2022-10-17T12:46:00.871Z,65.81
2022-10-17T12:48:34.852Z,65.82
2022-10-17T12:51:34.277Z,65.75
2022-10-17T12:54:00.592Z,65.79
2022-10-17T12:56:36.571Z,65.89
2022-10-17T12:59:28.053Z,65.90
2022-10-17T13:02:00.263Z,66.10
2022-10-17T13:04:30.746Z,66.21
2022-10-17T13:07:01.276Z,66.02
2022-10-17T13:09:37.585Z,65.78
2022-10-17T13:12:12.458Z,65.95
2022-10-17T13:14:42.987Z,65.96
2022-10-17T13:17:27.626Z,65.92
2022-10-17T13:19:56.451Z,66.11
2022-10-17T13:22:28.661Z,66.35
2022-10-17T13:25:27.081Z,66.44
2022-10-17T13:28:07.644Z,66.66
2022-10-17T13:30:36.822Z,66.69
2022-10-17T13:33:19.407Z,66.58
2022-10-17T13:35:59.982Z,66.78
2022-10-17T13:38:32.611Z,67.00
2022-10-17T13:41:23.249Z,67.02
2022-10-17T13:43:51.365Z,67.26
2022-10-17T13:46:40.168Z,67.48
2022-10-17T13:49:37.167Z,67.62
2022-10-17T13:52:07.802Z,67.75
2022-10-17T13:54:41.476Z,68.03
2022-10-17T13:57:25.690Z,68.28
2022-10-17T14:00:19.528Z,68.71
2022-10-17T14:02:48.595Z,69.16
2022-10-17T14:05:19.451Z,69.39
2022-10-17T14:10:44.273Z,69.94
2022-10-17T14:13:25.342Z,70.05
2022-10-17T14:15:56.390Z,70.30
2022-10-17T14:18:35.697Z,70.47
2022-10-17T14:24:17.028Z,71.36
2022-10-17T14:26:50.496Z,71.74
2022-10-17T14:29:22.154Z,72.10
2022-10-17T14:31:53.719Z,72.15
2022-10-17T14:34:27.961Z,72.29
2022-10-17T14:36:56.062Z,72.67
2022-10-17T14:39:26.533Z,72.88
2022-10-17T14:41:54.941Z,73.13
2022-10-17T14:44:29.534Z,73.44
2022-10-17T14:47:30.730Z,73.65
2022-10-17T14:50:28.242Z,73.82
2022-10-17T14:53:22.424Z,74.42
2022-10-17T14:56:02.566Z,74.85
2022-10-17T14:58:33.463Z,75.05
2022-10-17T15:01:02.522Z,75.03
2022-10-17T15:03:30.605Z,75.11
2022-10-17T15:05:59.575Z,75.40
2022-10-17T15:08:27.642Z,75.51
2022-10-17T15:10:55.613Z,75.74
2022-10-17T15:13:28.267Z,75.94
2022-10-17T15:15:57.587Z,76.10
2022-10-17T15:18:25.553Z,76.26
2022-10-17T15:21:04.487Z,76.55
2022-10-17T15:23:34.811Z,76.69
2022-10-17T15:26:02.789Z,76.97
2022-10-17T15:28:30.771Z,77.15
2022-10-17T15:30:58.708Z,77.34
2022-10-17T15:33:26.990Z,77.54
2022-10-17T15:35:55.152Z,77.68
2022-10-17T15:38:23.130Z,78.07
2022-10-17T15:40:52.218Z,78.36
2022-10-17T15:43:20.287Z,78.33
2022-10-17T15:45:48.874Z,78.45
2022-10-17T15:48:23.501Z,78.74
2022-10-17T15:50:51.469Z,78.89
2022-10-17T15:53:19.744Z,79.08
2022-10-17T15:55:51.091Z,79.17
2022-10-17T15:58:19.874Z,79.23
2022-10-17T16:00:48.887Z,79.36
2022-10-17T16:03:16.948Z,79.64
2022-10-17T16:05:45.009Z,79.80
2022-10-17T16:08:12.977Z,80.09
2022-10-17T16:10:41.169Z,80.15
2022-10-17T16:13:17.442Z,80.28
2022-10-17T16:15:45.495Z,80.53
2022-10-17T16:18:13.653Z,80.75
2022-10-17T16:20:41.929Z,80.67
2022-10-17T16:23:12.765Z,80.98
2022-10-17T16:25:41.318Z,80.91
2022-10-17T16:28:11.900Z,81.13
2022-10-17T16:30:44.997Z,81.09
2022-10-17T16:33:13.492Z,81.11
2022-10-17T16:35:41.628Z,81.18
2022-10-17T16:38:09.585Z,81.29
2022-10-17T16:40:39.690Z,81.35
2022-10-17T16:43:11.134Z,81.26
2022-10-17T16:45:39.425Z,81.29
2022-10-17T16:48:07.414Z,81.07
2022-10-17T16:50:39.204Z,81.32
2022-10-17T16:53:07.331Z,81.46
2022-10-17T16:55:35.394Z,81.41
2022-10-17T16:58:03.361Z,81.36
2022-10-17T17:00:31.370Z,81.46
2022-10-17T17:02:59.402Z,81.42
2022-10-17T17:05:27.471Z,81.22
2022-10-17T17:07:56.261Z,81.24
2022-10-17T17:10:24.335Z,81.26
2022-10-17T17:12:52.304Z,81.10
2022-10-17T17:15:20.285Z,80.90
2022-10-17T17:17:52.441Z,81.09
2022-10-17T17:20:22.999Z,80.91
2022-10-17T17:22:52.520Z,80.89
2022-10-17T17:25:22.547Z,80.84
2022-10-17T17:27:50.764Z,80.68
2022-10-17T17:30:18.877Z,80.55
2022-10-17T17:32:46.899Z,80.68
2022-10-17T17:35:14.969Z,80.63
2022-10-17T17:37:42.939Z,80.57
2022-10-17T17:40:11.723Z,80.56
2022-10-17T17:42:39.743Z,80.51
2022-10-17T17:45:08.917Z,80.49
2022-10-17T17:47:36.858Z,80.55
2022-10-17T17:50:05.518Z,80.44
2022-10-17T17:52:33.571Z,80.32
2022-10-17T17:55:01.666Z,80.28
2022-10-17T17:57:30.282Z,80.27
2022-10-17T17:59:58.299Z,80.12
2022-10-17T18:02:26.303Z,80.17
2022-10-17T18:04:54.274Z,80.16
2022-10-17T18:07:23.341Z,80.07
2022-10-17T18:09:51.849Z,80.01
2022-10-17T18:12:19.815Z,79.94
2022-10-17T18:14:48.265Z,80.03
2022-10-17T18:17:16.371Z,79.92
2022-10-17T18:19:44.331Z,79.86
2022-10-17T18:22:12.400Z,79.97
2022-10-17T18:24:41.059Z,80.01
2022-10-17T18:27:08.957Z,79.99
2022-10-17T18:29:36.922Z,79.90
2022-10-17T18:32:05.588Z,79.97
2022-10-17T18:34:33.785Z,79.96
2022-10-17T18:37:02.784Z,79.86
2022-10-17T18:39:31.151Z,79.89
2022-10-17T18:41:59.024Z,79.88
2022-10-17T18:44:27.495Z,79.79
2022-10-17T18:46:58.626Z,79.79
2022-10-17T18:49:29.683Z,79.83
2022-10-17T18:51:57.704Z,79.70
2022-10-17T18:54:25.718Z,79.57
2022-10-17T18:56:54.816Z,79.48
2022-10-17T18:59:23.800Z,79.44
2022-10-17T19:01:52.190Z,79.53
2022-10-17T19:04:20.353Z,79.34
2022-10-17T19:06:48.521Z,79.14
2022-10-17T19:09:16.700Z,79.24
2022-10-17T19:11:44.770Z,79.16
2022-10-17T19:14:13.619Z,78.88
2022-10-17T19:16:45.417Z,78.93
2022-10-17T19:19:20.657Z,78.73
2022-10-17T19:21:50.673Z,78.86
2022-10-17T19:24:24.542Z,78.73
2022-10-17T19:26:56.133Z,78.69
2022-10-17T19:29:27.282Z,78.53
2022-10-17T19:34:24.544Z,78.47
2022-10-17T19:36:52.512Z,78.35
2022-10-17T19:39:22.987Z,78.25
2022-10-17T19:41:51.109Z,78.11
2022-10-17T19:44:19.381Z,77.93
2022-10-17T19:46:49.411Z,77.94
2022-10-17T19:49:18.208Z,77.99
2022-10-17T19:51:46.388Z,77.86
2022-10-17T19:54:16.683Z,77.85
2022-10-17T19:56:44.647Z,77.78
2022-10-17T19:59:16.342Z,77.55
2022-10-17T20:01:44.739Z,77.50
2022-10-17T20:04:13.576Z,77.38
2022-10-17T20:06:42.122Z,77.32
2022-10-17T20:09:15.716Z,77.31
2022-10-17T20:11:45.517Z,77.44
2022-10-17T20:14:13.738Z,77.02
2022-10-17T20:16:44.934Z,77.16
2022-10-17T20:19:13.888Z,76.99
2022-10-17T20:21:42.854Z,77.12
2022-10-17T20:24:14.729Z,77.10
2022-10-17T20:26:43.427Z,77.07
2022-10-17T20:29:15.477Z,77.05
2022-10-17T20:31:45.694Z,77.20
2022-10-17T20:34:15.707Z,77.25
2022-10-17T20:36:44.150Z,77.16
2022-10-17T20:39:14.620Z,77.10
2022-10-17T20:41:43.494Z,77.30
2022-10-17T20:44:12.704Z,77.19
2022-10-17T20:46:45.347Z,77.31
2022-10-17T20:49:25.898Z,77.23
2022-10-17T20:51:53.938Z,77.38
2022-10-17T20:54:22.577Z,77.45
2022-10-17T20:56:50.592Z,77.59
2022-10-17T20:59:18.944Z,77.54
2022-10-17T21:01:47.900Z,77.74
2022-10-17T21:04:44.113Z,77.78
2022-10-17T21:07:03.997Z,77.75
2022-10-17T21:09:32.015Z,77.77
2022-10-17T21:14:36.551Z,78.02
2022-10-17T21:17:05.503Z,77.66
2022-10-17T21:19:34.083Z,77.72
2022-10-17T21:22:02.100Z,77.79
2022-10-17T21:24:30.999Z,77.68
2022-10-17T21:26:59.260Z,77.49
2022-10-17T21:29:27.329Z,77.53
2022-10-17T21:31:55.379Z,77.46
2022-10-17T21:34:25.194Z,77.40
2022-10-17T21:36:53.730Z,77.30
2022-10-17T21:39:24.272Z,77.27
2022-10-17T21:41:53.321Z,77.20
2022-10-17T21:44:24.971Z,77.13
2022-10-17T21:46:54.473Z,77.37
2022-10-17T21:49:25.205Z,77.24
2022-10-17T21:51:53.912Z,77.04
2022-10-17T21:54:23.673Z,77.03
2022-10-17T21:56:51.975Z,77.17
2022-10-17T21:59:19.944Z,76.95
2022-10-17T22:01:48.007Z,76.78
2022-10-17T22:04:18.152Z,76.86
2022-10-17T22:06:51.293Z,76.85
2022-10-17T22:09:24.697Z,76.97
2022-10-17T22:11:55.765Z,77.08
2022-10-17T22:14:25.573Z,76.96
2022-10-17T22:16:54.048Z,77.08
2022-10-17T22:19:25.501Z,77.14
2022-10-17T22:21:54.357Z,77.13
2022-10-17T22:24:23.430Z,77.20
2022-10-17T22:26:51.964Z,77.34
2022-10-17T22:29:20.241Z,77.26
2022-10-17T22:31:48.214Z,77.22
2022-10-17T22:34:17.612Z,77.29
2022-10-17T22:36:47.865Z,77.22
2022-10-17T22:39:16.004Z,77.35
2022-10-17T22:41:44.178Z,77.39
2022-10-17T22:44:12.148Z,77.38
2022-10-17T22:46:40.024Z,77.23
2022-10-17T22:49:07.980Z,77.51
2022-10-17T22:51:35.960Z,77.55
2022-10-17T22:54:04.298Z,77.57
2022-10-17T22:56:32.402Z,77.58
2022-10-17T22:59:00.468Z,77.73
2022-10-17T23:01:28.505Z,77.59
2022-10-17T23:03:56.508Z,77.76
2022-10-17T23:06:24.684Z,77.85
2022-10-17T23:08:52.785Z,77.80
2022-10-17T23:11:21.115Z,78.05
2022-10-17T23:13:49.302Z,78.20
2022-10-17T23:16:17.560Z,78.25
2022-10-17T23:18:45.769Z,78.20
2022-10-17T23:21:13.822Z,78.46
2022-10-17T23:23:41.918Z,78.52
2022-10-17T23:26:12.847Z,78.56
2022-10-17T23:28:42.358Z,78.74
2022-10-17T23:31:17.263Z,78.86
2022-10-17T23:33:47.189Z,79.05
2022-10-17T23:36:17.256Z,79.20
2022-10-17T23:38:47.003Z,79.20
2022-10-17T23:41:15.387Z,79.28
2022-10-17T23:43:44.282Z,79.37
2022-10-17T23:46:12.683Z,79.59
2022-10-17T23:48:41.217Z,79.70
2022-10-17T23:51:10.735Z,79.77
2022-10-17T23:53:40.140Z,80.00
2022-10-17T23:56:10.321Z,79.98
2022-10-17T23:58:39.453Z,80.09
